Time;durP1;ratioP1;P1;durP2;ratioP2;P2;SDS_P1;SDS_P2;PMS_P1;PMS_P2;Temp;Humidity;BMP_temperature;BMP_pressure;BME280_temperature;BME280_humidity;BME280_pressure;Samples;Min_cycle;Max_cycle;Signal;HPM_P1;HPM_P2
2022/12/06 00:02:07;;;;;;;6.50;3.30;;;5.30;48.60;;;;;;5091381;28;20528;-71
2022/12/06 00:04:35;;;;;;;7.07;4.07;;;5.30;17.10;;;;;;5091955;28;20459;-72
2022/12/06 00:07:02;;;;;;;6.40;4.80;;;5.40;1.00;;;;;;5078184;28;20451;-71
2022/12/06 00:09:31;;;;;;;9.30;4.90;;;5.40;1.00;;;;;;5078940;28;20815;-71
2022/12/06 00:11:58;;;;;;;6.33;3.77;;;5.40;1.00;;;;;;5085021;28;20544;-71
2022/12/06 00:14:26;;;;;;;5.57;4.23;;;5.50;1.00;;;;;;5092035;28;20456;-71
2022/12/06 00:16:53;;;;;;;7.00;4.40;;;5.50;1.00;;;;;;5090977;28;20444;-72
2022/12/06 00:19:22;;;;;;;5.80;4.40;;;5.30;1.00;;;;;;5078148;28;20456;-71
2022/12/06 00:21:50;;;;;;;5.80;3.50;;;5.50;1.00;;;;;;5085610;28;20769;-71
2022/12/06 00:24:19;;;;;;;5.63;3.87;;;5.30;1.00;;;;;;5091833;28;20779;-71
2022/12/06 00:26:47;;;;;;;6.33;4.50;;;5.20;1.00;;;;;;5090365;28;20482;-71
2022/12/06 00:29:16;;;;;;;7.47;4.53;;;5.40;1.00;;;;;;5091676;28;20487;-71
2022/12/06 00:31:43;;;;;;;7.60;3.37;;;5.30;1.00;;;;;;5077680;28;20799;-71
2022/12/06 00:34:10;;;;;;;6.23;3.83;;;5.30;1.00;;;;;;5082021;28;20943;-70
2022/12/06 00:36:38;;;;;;;5.77;4.07;;;5.30;1.00;;;;;;5086027;28;20465;-71
2022/12/06 00:39:08;;;;;;;6.00;3.43;;;5.30;1.00;;;;;;5080306;28;20454;-71
2022/12/06 00:41:35;;;;;;;6.43;3.63;;;5.40;1.00;;;;;;5091126;28;20447;-71
2022/12/06 00:44:02;;;;;;;6.77;4.00;;;5.40;1.00;;;;;;5090714;28;20936;-71
2022/12/06 00:46:30;;;;;;;6.70;4.97;;;5.30;1.00;;;;;;5086131;28;20452;-71
2022/12/06 00:48:58;;;;;;;3.47;2.80;;;5.30;1.00;;;;;;5079949;28;20860;-71
2022/12/06 00:51:27;;;;;;;5.10;3.50;;;5.30;1.00;;;;;;5083816;28;20951;-71
2022/12/06 00:53:54;;;;;;;4.07;3.67;;;5.40;1.00;;;;;;5079754;28;20458;-71
2022/12/06 00:56:22;;;;;;;7.80;3.17;;;5.30;1.00;;;;;;5079832;28;20451;-71
2022/12/06 00:58:49;;;;;;;5.53;3.87;;;5.50;1.00;;;;;;5074512;28;20459;-71
2022/12/06 01:01:19;;;;;;;6.23;4.30;;;5.60;1.00;;;;;;5088053;28;20456;-71
2022/12/06 01:03:46;;;;;;;6.23;3.50;;;5.60;1.00;;;;;;5089497;28;20446;-71
2022/12/06 01:06:15;;;;;;;6.57;3.27;;;5.50;1.00;;;;;;5076529;28;20449;-71
2022/12/06 01:08:43;;;;;;;5.07;3.37;;;5.50;1.00;;;;;;5083080;28;20466;-70
2022/12/06 01:11:11;;;;;;;3.63;2.80;;;5.50;1.00;;;;;;5090481;28;20461;-70
2022/12/06 01:13:39;;;;;;;6.73;3.63;;;5.60;1.00;;;;;;5089782;28;20926;-71
2022/12/06 01:16:07;;;;;;;5.00;3.73;;;5.40;1.00;;;;;;5082480;28;20449;-71
2022/12/06 01:18:35;;;;;;;4.57;3.27;;;5.40;1.00;;;;;;5071343;28;20471;-71
2022/12/06 01:21:04;;;;;;;3.23;2.70;;;5.40;1.00;;;;;;5089185;28;20453;-71
2022/12/06 01:23:31;;;;;;;6.00;3.83;;;5.20;1.00;;;;;;5088576;28;20456;-71
2022/12/06 01:25:58;;;;;;;7.07;3.63;;;5.30;1.00;;;;;;5071484;28;20455;-71
2022/12/06 01:28:25;;;;;;;7.27;2.87;;;5.40;1.00;;;;;;5076737;28;20449;-71
2022/12/06 01:30:53;;;;;;;3.70;2.90;;;5.40;1.00;;;;;;5089334;28;20482;-71
2022/12/06 01:33:20;;;;;;;4.53;2.73;;;5.40;1.00;;;;;;5089667;28;20447;-71
2022/12/06 01:35:46;;;;;;;6.20;3.27;;;5.40;1.00;;;;;;5086111;28;20456;-68
2022/12/06 01:38:13;;;;;;;6.40;3.97;;;5.50;1.00;;;;;;5080603;28;20968;-71
2022/12/06 01:40:42;;;;;;;4.30;3.07;;;5.30;1.00;;;;;;5079618;28;20451;-70
2022/12/06 01:43:30;;;;;;;4.47;3.10;;;5.50;1.00;;;;;;5075456;28;20458;-71
2022/12/06 01:46:02;;;;;;;4.33;3.30;;;5.30;1.00;;;;;;5081040;28;20977;-71
2022/12/06 01:48:29;;;;;;;3.47;2.03;;;5.40;1.00;;;;;;5075652;28;20482;-71
2022/12/06 01:50:57;;;;;;;4.60;2.37;;;5.40;1.00;;;;;;5086584;28;20483;-71
2022/12/06 01:53:25;;;;;;;2.93;2.50;;;5.40;1.00;;;;;;5084385;28;20452;-71
2022/12/06 01:55:53;;;;;;;6.50;3.20;;;5.30;99.90;;;;;;5088917;28;20462;-71
2022/12/06 01:58:25;;;;;;;3.63;2.40;;;5.30;99.90;;;;;;5082661;28;20457;-71
2022/12/06 02:00:52;;;;;;;4.47;2.63;;;5.40;1.00;;;;;;5084480;28;20444;-72
2022/12/06 02:03:23;;;;;;;4.17;3.77;;;5.30;99.90;;;;;;5089847;28;20452;-71
2022/12/06 02:05:49;;;;;;;4.93;2.37;;;5.20;99.90;;;;;;5087804;28;20446;-71
2022/12/06 02:08:17;;;;;;;3.73;2.70;;;5.40;99.90;;;;;;5083280;28;20450;-71
2022/12/06 02:10:44;;;;;;;3.27;2.17;;;5.30;99.90;;;;;;5089654;28;20490;-68
2022/12/06 02:13:11;;;;;;;4.90;2.37;;;5.30;99.90;;;;;;5089902;28;20445;-70
2022/12/06 02:15:47;;;;;;;5.10;2.73;;;5.40;99.90;;;;;;5085520;28;20448;-71
2022/12/06 02:18:26;;;;;;;4.23;2.70;;;5.40;99.90;;;;;;5088805;28;20453;-70
2022/12/06 02:20:59;;;;;;;2.33;2.10;;;5.30;99.90;;;;;;5084416;28;20465;-71
2022/12/06 02:24:10;;;;;;;2.73;2.33;;;5.40;99.90;;;;;;5074712;28;20451;-71
2022/12/06 02:26:43;;;;;;;6.33;2.23;;;5.40;99.90;;;;;;5030625;28;20472;-71
2022/12/06 02:29:48;;;;;;;4.60;2.23;;;5.30;99.90;;;;;;5081558;28;20488;-71
2022/12/06 02:32:21;;;;;;;6.23;2.87;;;5.60;99.90;;;;;;5089707;28;20444;-71
2022/12/06 02:34:56;;;;;;;2.87;2.57;;;5.60;1.00;;;;;;5092880;28;20464;-71
2022/12/06 02:37:29;;;;;;;3.73;2.50;;;5.60;2.00;;;;;;5092486;28;20454;-71
2022/12/06 02:39:59;;;;;;;2.67;2.47;;;5.60;1.00;;;;;;5078642;28;20537;-71
2022/12/06 02:42:29;;;;;;;3.63;2.30;;;5.60;1.00;;;;;;5089998;28;20946;-71
2022/12/06 02:45:00;;;;;;;3.20;2.30;;;5.40;1.00;;;;;;5092909;28;20448;-71
2022/12/06 02:47:33;;;;;;;4.03;2.80;;;5.50;99.90;;;;;;5080334;28;20461;-71
2022/12/06 02:50:03;;;;;;;2.43;2.13;;;5.60;1.00;;;;;;5091385;28;20483;-71
2022/12/06 02:52:31;;;;;;;3.07;2.40;;;5.60;1.00;;;;;;5087643;28;20852;-71
2022/12/06 02:55:01;;;;;;;3.20;1.60;;;5.70;1.00;;;;;;5078576;28;20564;-70
2022/12/06 02:57:35;;;;;;;3.17;2.20;;;5.40;1.00;;;;;;5085920;28;20455;-71
2022/12/06 03:00:02;;;;;;;2.57;1.60;;;5.40;99.90;;;;;;5092279;28;20463;-71
2022/12/06 03:02:34;;;;;;;3.23;2.70;;;5.30;37.50;;;;;;5092418;28;20448;-71
2022/12/06 03:05:10;;;;;;;3.03;2.47;;;5.40;99.90;;;;;;5081839;28;20462;-71
2022/12/06 03:07:41;;;;;;;2.87;2.33;;;5.50;68.00;;;;;;5089786;28;20453;-71
2022/12/06 03:10:32;;;;;;;2.97;2.30;;;5.30;99.90;;;;;;5083577;28;21231;-70
2022/12/06 03:13:08;;;;;;;2.93;2.10;;;5.30;2.90;;;;;;5091662;28;20453;-71
2022/12/06 03:15:46;;;;;;;1.93;1.73;;;5.10;99.90;;;;;;5090622;28;20451;-71
2022/12/06 03:18:19;;;;;;;2.63;2.20;;;5.20;99.90;;;;;;5084149;28;20463;-70
2022/12/06 03:20:51;;;;;;;3.67;2.37;;;5.30;99.90;;;;;;5087393;28;20455;-71
2022/12/06 03:23:22;;;;;;;3.90;2.30;;;5.30;99.90;;;;;;5092222;28;20454;-71
2022/12/06 03:25:51;;;;;;;3.03;1.80;;;5.30;99.90;;;;;;5087586;28;20448;-71
2022/12/06 03:28:20;;;;;;;3.53;2.47;;;5.40;99.90;;;;;;5090012;28;20513;-71
2022/12/06 03:30:50;;;;;;;2.37;1.83;;;5.50;1.00;;;;;;5091370;28;20505;-71
2022/12/06 03:33:22;;;;;;;3.57;2.40;;;5.40;1.00;;;;;;5078475;28;20448;-71
2022/12/06 03:35:52;;;;;;;4.20;1.97;;;5.30;21.10;;;;;;5081455;28;20450;-71
2022/12/06 03:38:24;;;;;;;2.10;1.67;;;5.30;99.90;;;;;;5085203;28;20993;-71
2022/12/06 03:40:53;;;;;;;3.30;2.50;;;5.40;99.90;;;;;;5083770;28;20459;-71
2022/12/06 03:43:20;;;;;;;3.10;2.70;;;5.30;99.90;;;;;;5091485;28;20822;-71
2022/12/06 03:45:58;;;;;;;7.23;1.90;;;5.20;99.90;;;;;;5087553;28;20462;-69
2022/12/06 03:48:32;;;;;;;4.80;3.20;;;5.40;99.90;;;;;;5082502;28;20476;-71
2022/12/06 03:51:04;;;;;;;2.50;2.10;;;5.40;99.90;;;;;;5085777;28;20462;-71
2022/12/06 03:53:31;;;;;;;3.67;2.20;;;5.40;99.90;;;;;;5091518;28;20460;-71
2022/12/06 03:55:58;;;;;;;2.33;1.97;;;5.40;74.00;;;;;;5089206;28;20456;-71
2022/12/06 03:58:25;;;;;;;4.97;2.93;;;5.30;1.00;;;;;;5080831;28;20943;-71
2022/12/06 04:00:52;;;;;;;4.33;2.37;;;5.30;77.70;;;;;;5086055;28;20458;-71
2022/12/06 04:03:19;;;;;;;2.27;1.60;;;5.50;1.00;;;;;;5092176;28;20452;-71
2022/12/06 04:05:47;;;;;;;3.63;3.03;;;5.50;1.00;;;;;;5090681;28;20456;-70
2022/12/06 04:08:13;;;;;;;3.97;1.90;;;5.40;1.00;;;;;;5090388;28;20452;-71
2022/12/06 04:10:40;;;;;;;2.77;2.50;;;5.30;1.00;;;;;;5084509;28;20483;-71
2022/12/06 04:13:08;;;;;;;3.90;3.40;;;5.40;1.00;;;;;;5090836;28;20452;-71
2022/12/06 04:15:37;;;;;;;2.30;1.70;;;5.30;55.30;;;;;;5090553;28;20458;-71
2022/12/06 04:18:12;;;;;;;2.97;1.93;;;5.20;99.90;;;;;;5080782;28;20852;-71
2022/12/06 04:23:33;;;;;;;3.40;1.97;;;5.30;99.90;;;;;;5080914;28;21069;-72
2022/12/06 04:26:00;;;;;;;1.93;1.57;;;5.30;99.90;;;;;;5079772;28;20451;-71
2022/12/06 04:39:26;;;;;;;3.73;2.17;;;5.70;1.00;;;;;;5089624;28;20458;-70
2022/12/06 04:44:37;;;;;;;2.83;2.53;;;5.40;1.00;;;;;;5076633;28;20419;-71
2022/12/06 04:47:05;;;;;;;8.70;3.03;;;5.10;99.90;;;;;;5089977;28;20764;-70
2022/12/06 04:49:32;;;;;;;4.70;2.77;;;5.10;99.90;;;;;;5078214;28;20492;-70
2022/12/06 04:51:58;;;;;;;3.63;2.53;;;5.30;99.90;;;;;;5081735;28;20458;-70
2022/12/06 04:54:28;;;;;;;3.17;2.47;;;5.20;99.90;;;;;;5088825;28;20802;-70
2022/12/06 04:56:56;;;;;;;3.93;2.60;;;5.30;99.90;;;;;;5079945;28;20458;-74
2022/12/06 04:59:23;;;;;;;3.53;2.37;;;5.30;99.90;;;;;;5089724;28;20451;-71
2022/12/06 05:01:50;;;;;;;7.33;5.30;;;5.10;99.90;;;;;;5090268;28;20463;-73
2022/12/06 05:04:17;;;;;;;4.50;2.40;;;5.10;99.90;;;;;;5087871;28;20443;-73
2022/12/06 05:06:44;;;;;;;2.97;2.40;;;5.10;99.90;;;;;;5081811;28;20457;-68
2022/12/06 05:09:11;;;;;;;2.90;2.60;;;5.20;99.90;;;;;;5086075;28;20821;-70
2022/12/06 05:11:40;;;;;;;2.53;2.00;;;5.40;99.90;;;;;;5088134;28;20498;-70
2022/12/06 05:14:06;;;;;;;4.37;2.00;;;5.30;1.00;;;;;;5074828;28;20469;-70
2022/12/06 05:16:33;;;;;;;3.67;2.70;;;5.10;99.90;;;;;;5089590;28;20442;-71
2022/12/06 05:19:00;;;;;;;2.60;2.20;;;5.20;99.90;;;;;;5089917;28;20465;-73
2022/12/06 05:21:27;;;;;;;4.83;2.87;;;5.20;99.90;;;;;;5078627;28;20458;-73
2022/12/06 05:23:55;;;;;;;4.57;2.47;;;5.20;99.90;;;;;;5083456;28;20458;-71
2022/12/06 05:26:23;;;;;;;2.97;2.20;;;5.30;1.00;;;;;;5082488;28;20450;-70
2022/12/06 05:28:52;;;;;;;5.30;2.27;;;5.20;1.00;;;;;;5083919;28;20475;-73
2022/12/06 05:31:20;;;;;;;2.47;2.10;;;5.20;99.90;;;;;;5077384;28;21003;-73
2022/12/06 05:33:47;;;;;;;2.63;2.17;;;5.50;1.00;;;;;;5089717;28;21258;-72
2022/12/06 05:36:17;;;;;;;4.97;2.50;;;5.40;1.00;;;;;;5090535;28;20957;-72
2022/12/06 05:38:45;;;;;;;1.80;1.70;;;5.40;1.00;;;;;;5091243;28;20467;-68
2022/12/06 05:41:12;;;;;;;6.07;2.10;;;5.60;1.00;;;;;;5090412;28;20476;-72
2022/12/06 05:43:39;;;;;;;2.27;1.87;;;5.60;99.90;;;;;;5090624;28;20476;-71
2022/12/06 05:46:07;;;;;;;2.00;1.73;;;5.50;99.90;;;;;;5090027;28;20456;-73
2022/12/06 05:48:34;;;;;;;2.87;2.30;;;5.40;1.00;;;;;;5090414;28;20907;-72
2022/12/06 05:51:01;;;;;;;2.80;1.83;;;5.50;1.00;;;;;;5089109;28;20990;-73
2022/12/06 05:53:28;;;;;;;3.50;2.60;;;5.40;1.00;;;;;;5090831;28;20457;-73
2022/12/06 05:55:55;;;;;;;4.90;2.07;;;5.40;99.90;;;;;;5091664;28;20797;-73
2022/12/06 05:58:22;;;;;;;3.10;2.33;;;5.40;1.00;;;;;;5094375;28;20546;-72
2022/12/06 06:00:49;;;;;;;4.57;2.40;;;5.40;1.00;;;;;;5093928;28;20454;-73
2022/12/06 06:03:18;;;;;;;2.50;2.30;;;5.40;99.90;;;;;;5094163;28;20458;-73
2022/12/06 06:05:49;;;;;;;3.30;2.10;;;5.40;1.00;;;;;;5094463;28;20447;-68
2022/12/06 06:08:16;;;;;;;5.77;2.37;;;5.60;99.90;;;;;;5091179;28;20458;-72
2022/12/06 06:10:43;;;;;;;3.67;2.20;;;5.40;99.90;;;;;;5084297;28;20479;-73
2022/12/06 06:13:10;;;;;;;2.40;1.93;;;5.50;99.90;;;;;;5094497;28;20455;-72
2022/12/06 06:15:37;;;;;;;3.23;2.70;;;5.60;99.90;;;;;;5094641;28;20448;-73
2022/12/06 06:18:04;;;;;;;4.00;1.77;;;5.40;99.90;;;;;;5094029;28;21116;-73
2022/12/06 06:20:33;;;;;;;2.53;1.63;;;5.30;1.00;;;;;;5094394;28;20459;-73
2022/12/06 06:23:00;;;;;;;3.40;2.30;;;5.50;99.90;;;;;;5093396;28;20796;-73
2022/12/06 06:25:26;;;;;;;4.83;2.30;;;5.60;1.00;;;;;;5094508;28;20451;-73
2022/12/06 06:27:53;;;;;;;3.43;2.47;;;5.60;1.00;;;;;;5093875;28;20445;-73
2022/12/06 06:30:20;;;;;;;4.27;3.23;;;5.70;8.00;;;;;;5094126;28;20483;-73
2022/12/06 06:32:47;;;;;;;2.90;1.80;;;5.70;1.00;;;;;;5093370;28;20870;-72
2022/12/06 06:35:14;;;;;;;3.73;2.20;;;5.70;1.00;;;;;;5093977;28;20449;-72
2022/12/06 06:37:42;;;;;;;4.13;2.33;;;5.80;99.90;;;;;;5094409;28;20458;-72
2022/12/06 06:40:10;;;;;;;3.67;2.70;;;5.80;85.40;;;;;;5093570;28;20458;-72
2022/12/06 06:42:37;;;;;;;2.80;1.90;;;5.70;99.90;;;;;;5093799;28;20452;-73
2022/12/06 06:45:04;;;;;;;3.17;1.80;;;5.70;40.10;;;;;;5093428;28;20445;-72
2022/12/06 06:47:31;;;;;;;5.93;2.07;;;5.80;68.80;;;;;;5093580;28;20463;-72
2022/12/06 06:49:58;;;;;;;3.57;2.17;;;5.70;99.90;;;;;;5092965;28;20794;-73
2022/12/06 06:52:25;;;;;;;5.53;2.87;;;5.70;99.90;;;;;;5093092;28;20491;-72
2022/12/06 06:54:53;;;;;;;3.13;2.57;;;5.70;99.90;;;;;;5093312;28;20452;-72
2022/12/06 06:57:20;;;;;;;3.70;2.37;;;5.90;1.00;;;;;;5093709;28;20451;-72
2022/12/06 06:59:47;;;;;;;2.77;1.97;;;5.90;15.10;;;;;;5093096;28;20454;-72
2022/12/06 07:02:16;;;;;;;5.63;2.70;;;6.40;1.00;;;;;;5093544;28;20449;-72
2022/12/06 07:04:43;;;;;;;3.87;2.43;;;6.80;99.90;;;;;;5093825;28;20451;-73
2022/12/06 07:07:11;;;;;;;6.93;2.63;;;6.70;1.00;;;;;;5092539;28;20553;-71
2022/12/06 07:09:38;;;;;;;3.67;2.30;;;7.00;55.00;;;;;;5079034;28;20465;-73
2022/12/06 07:12:06;;;;;;;2.90;2.13;;;6.50;99.90;;;;;;5092941;28;20496;-73
2022/12/06 07:14:34;;;;;;;2.30;1.77;;;6.30;1.00;;;;;;5094332;28;20452;-73
2022/12/06 07:17:00;;;;;;;3.20;2.80;;;6.10;99.90;;;;;;5095876;28;20539;-73
2022/12/06 07:19:27;;;;;;;5.27;3.30;;;6.10;99.90;;;;;;5098239;28;20445;-73
2022/12/06 07:21:54;;;;;;;3.73;2.40;;;6.00;99.90;;;;;;5096817;28;20459;-73
2022/12/06 07:24:21;;;;;;;2.83;2.20;;;6.00;1.00;;;;;;5098884;28;20950;-72
2022/12/06 07:26:48;;;;;;;4.60;2.27;;;6.10;1.00;;;;;;5100075;28;20452;-69
2022/12/06 07:29:16;;;;;;;2.80;2.50;;;5.90;1.00;;;;;;5100760;28;20452;-70
2022/12/06 07:31:43;;;;;;;3.13;2.30;;;5.90;1.00;;;;;;5101320;28;20486;-73
2022/12/06 07:34:10;;;;;;;3.27;2.27;;;5.70;99.90;;;;;;5102024;28;20450;-72
2022/12/06 07:36:36;;;;;;;4.90;2.77;;;5.70;1.00;;;;;;5101091;28;20467;-72
2022/12/06 07:39:04;;;;;;;3.63;2.77;;;5.80;1.00;;;;;;5100355;28;20844;-74
2022/12/06 07:47:02;;;;;;;3.70;2.43;;;5.70;1.00;;;;;;5086443;28;20493;-72
2022/12/06 07:49:29;;;;;;;3.33;2.80;;;5.70;1.00;;;;;;5093274;28;20480;-72
2022/12/06 07:51:57;;;;;;;2.80;2.50;;;5.90;1.00;;;;;;5091823;28;20493;-73
2022/12/06 07:54:24;;;;;;;3.90;2.27;;;5.80;99.90;;;;;;5092941;28;20452;-71
2022/12/06 07:56:51;;;;;;;3.30;2.03;;;5.70;99.90;;;;;;5091722;28;20935;-72
2022/12/06 07:59:19;;;;;;;7.03;2.60;;;5.80;1.00;;;;;;5092776;28;20457;-72
2022/12/06 08:01:46;;;;;;;3.20;2.27;;;5.60;1.00;;;;;;5091645;28;20464;-72
2022/12/06 08:04:13;;;;;;;4.20;2.53;;;5.80;65.00;;;;;;5092691;28;20446;-72
2022/12/06 08:06:40;;;;;;;2.63;2.43;;;5.60;1.00;;;;;;5092796;28;21181;-71
2022/12/06 08:09:07;;;;;;;2.77;2.17;;;5.70;99.90;;;;;;5080613;28;20480;-72
2022/12/06 08:11:35;;;;;;;5.53;2.40;;;5.90;99.90;;;;;;5088489;28;21019;-72
2022/12/06 08:14:02;;;;;;;4.40;2.50;;;5.80;99.90;;;;;;5091552;28;20443;-72
2022/12/06 08:16:30;;;;;;;3.00;1.77;;;5.90;99.90;;;;;;5092049;28;20445;-73
2022/12/06 08:18:57;;;;;;;2.93;2.70;;;6.00;1.00;;;;;;5091608;28;20456;-72
2022/12/06 08:21:25;;;;;;;2.57;1.83;;;6.00;99.90;;;;;;5091425;28;20451;-72
2022/12/06 08:23:53;;;;;;;2.87;2.37;;;5.90;99.90;;;;;;5091521;28;20557;-72
2022/12/06 08:26:20;;;;;;;4.00;2.13;;;5.90;1.00;;;;;;5091821;28;20950;-72
2022/12/06 08:28:47;;;;;;;2.77;2.40;;;5.90;99.90;;;;;;5091035;28;20444;-72
2022/12/06 08:31:17;;;;;;;3.33;2.57;;;5.90;99.90;;;;;;5091569;28;20484;-71
2022/12/06 08:33:46;;;;;;;1.83;1.60;;;6.10;99.90;;;;;;5091547;28;20448;-69
2022/12/06 08:36:14;;;;;;;3.60;2.40;;;6.10;99.90;;;;;;5092166;28;20793;-72
2022/12/06 08:38:42;;;;;;;3.17;2.20;;;6.10;1.00;;;;;;5078626;28;20449;-72
2022/12/06 08:41:54;;;;;;;2.87;1.90;;;6.30;1.00;;;;;;5091299;28;20460;-72
2022/12/06 08:44:00;;;;;;;2.67;2.10;;;6.20;99.90;;;;;;5091273;28;20445;-72
2022/12/06 08:46:27;;;;;;;2.50;1.93;;;6.20;99.90;;;;;;5091349;28;20449;-73
2022/12/06 08:48:55;;;;;;;4.17;2.63;;;6.10;99.90;;;;;;5091174;28;20472;-72
2022/12/06 08:51:22;;;;;;;3.87;2.37;;;6.20;96.00;;;;;;5091003;28;20843;-72
2022/12/06 08:53:51;;;;;;;3.87;2.43;;;6.30;99.90;;;;;;5091252;28;20448;-72
2022/12/06 08:56:18;;;;;;;2.77;2.33;;;6.30;1.00;;;;;;5091045;28;20485;-72
2022/12/06 08:58:45;;;;;;;3.57;2.60;;;6.00;99.90;;;;;;5091107;28;20500;-71
2022/12/06 09:01:13;;;;;;;5.50;2.60;;;6.00;1.00;;;;;;5091218;28;20447;-71
2022/12/06 09:03:40;;;;;;;3.30;2.67;;;6.00;1.00;;;;;;5091551;28;20479;-72
2022/12/06 09:06:09;;;;;;;4.00;3.43;;;6.20;99.90;;;;;;5090222;28;20447;-72
2022/12/06 09:08:37;;;;;;;6.00;3.00;;;6.20;99.90;;;;;;5084998;28;20544;-72
2022/12/06 09:11:05;;;;;;;4.17;2.57;;;6.20;1.00;;;;;;5082895;28;20448;-72
2022/12/06 09:13:32;;;;;;;4.73;3.47;;;6.30;99.90;;;;;;5091404;28;20542;-72
2022/12/06 09:16:00;;;;;;;3.83;3.00;;;6.30;1.00;;;;;;5090529;28;20814;-72
2022/12/06 09:18:28;;;;;;;5.60;3.50;;;6.30;1.00;;;;;;5090974;28;20458;-71
2022/12/06 09:20:54;;;;;;;6.03;3.00;;;6.30;1.00;;;;;;5090047;28;20816;-72
2022/12/06 09:23:23;;;;;;;5.27;2.80;;;6.40;1.00;;;;;;5091219;28;20453;-72
2022/12/06 09:25:49;;;;;;;3.93;2.67;;;6.40;99.90;;;;;;5090797;28;20463;-72
2022/12/06 09:28:17;;;;;;;5.63;3.20;;;6.40;1.00;;;;;;5091245;28;20445;-72
2022/12/06 09:30:44;;;;;;;5.60;3.03;;;6.50;99.90;;;;;;5092316;28;20446;-72
2022/12/06 09:33:11;;;;;;;3.30;2.60;;;6.50;99.90;;;;;;5095306;28;20477;-72
2022/12/06 09:35:38;;;;;;;6.00;3.47;;;6.40;99.90;;;;;;5095042;28;21015;-72
2022/12/06 09:38:05;;;;;;;2.73;2.50;;;6.30;1.00;;;;;;5094697;28;20469;-72
2022/12/06 09:40:38;;;;;;;4.17;2.87;;;6.40;1.00;;;;;;5094932;28;20450;-72
2022/12/06 09:43:17;;;;;;;5.97;3.47;;;6.40;31.50;;;;;;5094581;28;21032;-73
2022/12/06 09:46:00;;;;;;;4.30;3.00;;;6.40;38.60;;;;;;5095047;28;20497;-69
2022/12/06 09:49:03;;;;;;;3.53;2.80;;;6.40;1.00;;;;;;5081462;28;20486;-72
2022/12/06 09:51:44;;;;;;;3.67;2.73;;;6.30;90.20;;;;;;5074588;28;20480;-72
2022/12/06 09:54:25;;;;;;;7.17;4.43;;;6.30;99.90;;;;;;5095257;28;20455;-72
2022/12/06 09:57:01;;;;;;;6.00;3.47;;;6.50;1.00;;;;;;5094581;28;20443;-72
2022/12/06 09:59:37;;;;;;;4.93;3.80;;;6.50;1.00;;;;;;5094699;28;20448;-72
2022/12/06 10:02:23;;;;;;;6.30;3.43;;;6.50;1.00;;;;;;5094242;28;20641;-72
2022/12/06 10:05:13;;;;;;;6.23;3.60;;;6.60;1.00;;;;;;5074180;28;20453;-72
2022/12/06 10:07:50;;;;;;;6.67;3.93;;;6.50;78.90;;;;;;5093504;28;20798;-72
2022/12/06 10:10:26;;;;;;;5.37;4.20;;;6.60;1.00;;;;;;5087497;28;20440;-72
2022/12/06 10:13:03;;;;;;;7.00;4.57;;;6.60;1.00;;;;;;5093847;28;20968;-73
2022/12/06 10:15:50;;;;;;;6.03;3.57;;;6.30;99.90;;;;;;5094362;28;20451;-73
2022/12/06 10:18:33;;;;;;;7.10;4.90;;;6.40;99.90;;;;;;5094673;28;20453;-72
2022/12/06 10:21:09;;;;;;;5.87;4.50;;;6.20;1.00;;;;;;5093679;28;20467;-72
2022/12/06 10:23:50;;;;;;;5.93;4.00;;;6.30;99.90;;;;;;5094597;28;20440;-72
2022/12/06 10:26:22;;;;;;;8.67;4.77;;;6.30;99.90;;;;;;5094342;28;20459;-72
2022/12/06 10:28:59;;;;;;;6.30;4.60;;;6.40;1.00;;;;;;5093732;28;20460;-72
2022/12/06 10:31:32;;;;;;;6.13;4.23;;;6.50;1.00;;;;;;5093343;28;20445;-72
2022/12/06 10:34:08;;;;;;;5.63;4.17;;;6.50;99.90;;;;;;5093611;28;20443;-72
2022/12/06 10:36:43;;;;;;;6.17;4.67;;;6.30;99.90;;;;;;5094258;28;20448;-72
2022/12/06 10:39:18;;;;;;;6.93;3.80;;;6.30;99.90;;;;;;5094171;28;20448;-72
2022/12/06 10:41:52;;;;;;;6.97;4.53;;;6.20;99.90;;;;;;5093381;28;20452;-71
2022/12/06 10:44:29;;;;;;;6.27;3.00;;;6.20;99.90;;;;;;5094013;28;20441;-72
2022/12/06 10:47:03;;;;;;;6.70;4.50;;;6.30;99.90;;;;;;5081108;28;20922;-71
2022/12/06 10:49:39;;;;;;;6.50;3.80;;;6.40;1.00;;;;;;5094117;28;20584;-72
2022/12/06 10:52:23;;;;;;;5.50;3.67;;;6.40;1.00;;;;;;5092820;28;20829;-72
2022/12/06 10:54:58;;;;;;;11.10;4.73;;;6.30;99.90;;;;;;5093138;28;20452;-72
2022/12/06 10:57:35;;;;;;;6.13;4.00;;;6.20;99.90;;;;;;5093600;28;20441;-72
2022/12/06 11:00:07;;;;;;;7.43;4.27;;;6.20;99.90;;;;;;5093020;28;20941;-72
2022/12/06 11:02:39;;;;;;;6.80;4.70;;;6.10;99.90;;;;;;5093190;28;20448;-73
2022/12/06 11:05:17;;;;;;;6.13;3.70;;;6.00;99.90;;;;;;5093298;28;20456;-72
2022/12/06 11:07:49;;;;;;;7.33;3.80;;;6.10;99.90;;;;;;5093415;28;20510;-69
2022/12/06 11:10:21;;;;;;;6.50;2.87;;;6.10;99.90;;;;;;5086613;28;20456;-72
2022/12/06 11:12:51;;;;;;;5.47;3.37;;;6.00;71.20;;;;;;5092778;28;20473;-72
2022/12/06 11:15:23;;;;;;;6.23;4.20;;;5.90;99.90;;;;;;5093605;28;20458;-72
2022/12/06 11:17:55;;;;;;;6.10;4.00;;;6.00;1.00;;;;;;5092832;28;20468;-72
2022/12/06 11:20:26;;;;;;;5.13;4.20;;;6.00;1.00;;;;;;5092722;28;20459;-72
2022/12/06 11:23:04;;;;;;;7.93;4.33;;;5.90;99.90;;;;;;5092965;28;20449;-72
2022/12/06 11:25:41;;;;;;;7.90;3.23;;;6.00;1.00;;;;;;5093071;28;20472;-72
2022/12/06 11:28:20;;;;;;;8.00;4.83;;;6.00;1.00;;;;;;5092514;28;20474;-72
2022/12/06 11:30:51;;;;;;;6.43;4.17;;;6.00;1.00;;;;;;5092446;28;20455;-72
2022/12/06 11:33:20;;;;;;;7.03;3.77;;;6.00;1.00;;;;;;5092626;28;20484;-72
2022/12/06 11:35:47;;;;;;;7.90;4.20;;;5.90;1.00;;;;;;5092484;28;20450;-72
2022/12/06 11:38:16;;;;;;;5.33;4.43;;;5.80;1.00;;;;;;5092798;28;20454;-70
2022/12/06 11:40:45;;;;;;;6.37;3.50;;;5.90;99.90;;;;;;5092581;28;20463;-72
2022/12/06 11:43:17;;;;;;;7.83;4.90;;;5.80;99.90;;;;;;5092762;28;20453;-72
2022/12/06 11:45:45;;;;;;;4.53;2.70;;;5.90;1.00;;;;;;5093080;28;20452;-69
2022/12/06 11:48:17;;;;;;;4.07;2.20;;;6.00;1.00;;;;;;5092326;28;20502;-72
2022/12/06 11:50:46;;;;;;;6.00;3.63;;;6.00;1.00;;;;;;5092177;28;20808;-68
2022/12/06 11:53:20;;;;;;;5.57;3.47;;;5.80;99.90;;;;;;5092066;28;20484;-72
2022/12/06 11:55:51;;;;;;;7.00;4.20;;;5.70;93.30;;;;;;5092217;28;20524;-72
2022/12/06 11:58:25;;;;;;;3.60;3.00;;;5.60;99.90;;;;;;5092605;28;20440;-72
2022/12/06 12:00:59;;;;;;;2.97;2.40;;;5.70;1.00;;;;;;5091691;28;20440;-72
2022/12/06 12:03:30;;;;;;;11.50;3.40;;;6.00;99.90;;;;;;5092733;28;20446;-72
2022/12/06 12:06:29;;;;;;;4.53;3.13;;;6.10;1.00;;;;;;5091589;28;20444;-72
2022/12/06 12:08:59;;;;;;;11.47;3.97;;;6.10;27.40;;;;;;5020373;28;20459;-72
2022/12/06 12:11:29;;;;;;;4.70;3.30;;;6.20;99.90;;;;;;5025260;28;20824;-72
2022/12/06 12:14:00;;;;;;;4.87;3.13;;;6.00;1.00;;;;;;5059306;28;20496;-72
2022/12/06 12:16:32;;;;;;;6.40;3.87;;;6.00;1.00;;;;;;5092471;28;20472;-72
2022/12/06 12:19:03;;;;;;;4.77;3.20;;;5.90;1.00;;;;;;5091734;28;20456;-72
2022/12/06 12:21:37;;;;;;;3.27;2.30;;;5.80;50.50;;;;;;5091479;28;20459;-72
2022/12/06 12:24:05;;;;;;;3.90;2.10;;;5.90;1.00;;;;;;5078136;28;20448;-72
2022/12/06 12:26:39;;;;;;;4.10;2.70;;;6.00;1.00;;;;;;5091941;28;20449;-72
2022/12/06 12:29:16;;;;;;;3.80;2.40;;;5.90;1.00;;;;;;5091596;28;20456;-73
2022/12/06 12:31:52;;;;;;;5.30;2.40;;;6.20;99.90;;;;;;5091837;28;20824;-72
2022/12/06 12:34:22;;;;;;;7.00;3.43;;;6.20;99.90;;;;;;5092036;28;20456;-72
2022/12/06 12:36:52;;;;;;;6.50;3.20;;;6.10;1.00;;;;;;5091029;28;20448;-72
2022/12/06 12:39:25;;;;;;;2.07;1.60;;;5.90;1.00;;;;;;5091642;28;20943;-72
2022/12/06 12:41:52;;;;;;;3.97;2.03;;;5.60;99.90;;;;;;5090334;28;20436;-72
2022/12/06 12:44:23;;;;;;;3.30;2.13;;;5.70;99.90;;;;;;5091572;28;20444;-72
2022/12/06 12:46:54;;;;;;;4.67;3.00;;;5.70;99.90;;;;;;5077370;28;20459;-72
2022/12/06 12:49:26;;;;;;;6.23;2.40;;;5.90;1.00;;;;;;5091868;28;20471;-72
2022/12/06 12:51:54;;;;;;;3.07;1.57;;;5.70;1.00;;;;;;5090280;28;20443;-72
2022/12/06 12:54:25;;;;;;;4.13;1.77;;;5.70;99.90;;;;;;5091775;28;20443;-72
2022/12/06 12:56:53;;;;;;;3.80;3.10;;;5.50;99.90;;;;;;5091262;28;20447;-72
2022/12/06 12:59:21;;;;;;;2.93;1.47;;;5.60;99.90;;;;;;5091516;28;20451;-72
2022/12/06 13:01:54;;;;;;;2.93;1.80;;;5.60;99.90;;;;;;5090605;28;20443;-72
2022/12/06 13:04:35;;;;;;;2.43;1.73;;;5.40;99.90;;;;;;5091231;28;20455;-71
2022/12/06 13:07:05;;;;;;;2.00;1.60;;;5.30;99.90;;;;;;5090608;28;20443;-72
2022/12/06 13:09:43;;;;;;;2.17;1.60;;;5.60;99.90;;;;;;5077121;28;20949;-72
2022/12/06 13:12:15;;;;;;;2.27;1.43;;;5.60;99.90;;;;;;5086156;28;20781;-72
2022/12/06 13:14:50;;;;;;;2.77;1.90;;;5.40;99.90;;;;;;5091722;28;20495;-72
2022/12/06 13:17:18;;;;;;;6.10;3.00;;;5.70;99.90;;;;;;5091083;28;20906;-72
2022/12/06 13:19:48;;;;;;;3.40;1.87;;;5.80;18.90;;;;;;5090791;28;20460;-71
2022/12/06 13:22:19;;;;;;;2.77;1.97;;;5.70;99.90;;;;;;5090766;28;20469;-72
2022/12/06 13:24:49;;;;;;;1.83;1.57;;;5.80;1.00;;;;;;5090844;28;20435;-72
2022/12/06 13:27:20;;;;;;;3.17;1.93;;;5.50;1.00;;;;;;5091289;28;20444;-72
2022/12/06 13:29:55;;;;;;;3.23;2.27;;;5.50;14.00;;;;;;5090768;28;20456;-71
2022/12/06 13:32:33;;;;;;;2.23;2.03;;;5.50;1.00;;;;;;5090972;28;20475;-72
2022/12/06 13:35:06;;;;;;;3.83;1.77;;;5.60;1.00;;;;;;5090702;28;20541;-72
2022/12/06 13:37:42;;;;;;;1.60;1.20;;;5.50;1.00;;;;;;5091140;28;20445;-72
2022/12/06 13:40:47;;;;;;;1.30;1.20;;;5.40;99.90;;;;;;5090007;28;20446;-73
2022/12/06 13:43:56;;;;;;;4.10;2.50;;;5.40;99.90;;;;;;5091126;28;20460;-71